createdAt,value
2022-08-11T00:00:42.102Z,27.80
2022-08-11T00:02:52.332Z,27.90
2022-08-11T00:04:57.588Z,27.90
2022-08-11T00:07:02.751Z,27.90
2022-08-11T00:09:10.871Z,27.90
2022-08-11T00:11:18.264Z,27.90
2022-08-11T00:13:23.479Z,27.80
2022-08-11T00:15:29.349Z,27.80
2022-08-11T00:17:35.055Z,27.90
2022-08-11T00:20:11.513Z,27.90
2022-08-11T00:22:14.497Z,27.90
2022-08-11T00:24:18.969Z,27.90
2022-08-11T00:26:24.183Z,28.00
2022-08-11T00:28:30.520Z,28.00
2022-08-11T00:30:44.399Z,28.00
2022-08-11T00:32:56.544Z,28.10
2022-08-11T00:35:54.470Z,28.10
2022-08-11T00:37:25.425Z,28.20
2022-08-11T00:39:30.327Z,28.20
2022-08-11T00:41:49.309Z,28.10
2022-08-11T00:44:16.308Z,28.10
2022-08-11T00:46:52.553Z,28.20
2022-08-11T00:49:31.031Z,28.30
2022-08-11T00:52:05.464Z,28.30
2022-08-11T00:54:43.992Z,28.40
2022-08-11T00:57:36.250Z,28.40
2022-08-11T01:00:07.683Z,28.40
2022-08-11T01:02:30.691Z,28.50
2022-08-11T01:04:50.206Z,28.60
2022-08-11T01:07:09.416Z,28.60
2022-08-11T01:09:38.349Z,28.50
2022-08-11T01:12:14.485Z,28.60
2022-08-11T01:14:40.986Z,28.70
2022-08-11T01:17:15.012Z,28.70
2022-08-11T01:20:47.861Z,28.80
2022-08-11T01:22:41.382Z,28.90
2022-08-11T01:25:20.956Z,28.90
2022-08-11T01:27:57.456Z,29.00
2022-08-11T01:30:37.077Z,29.00
2022-08-11T01:33:13.616Z,29.00
2022-08-11T01:36:00.339Z,28.90
2022-08-11T01:38:44.061Z,29.00
2022-08-11T01:41:21.767Z,29.00
2022-08-11T01:44:14.938Z,29.10
2022-08-11T01:46:40.477Z,29.20
2022-08-11T01:50:01.033Z,29.40
2022-08-11T01:52:06.350Z,29.30
2022-08-11T01:54:35.081Z,29.40
2022-08-11T01:56:51.904Z,29.40
2022-08-11T01:59:21.825Z,29.50
2022-08-11T02:01:54.379Z,29.50
2022-08-11T02:04:40.387Z,29.60
2022-08-11T02:07:09.728Z,29.70
2022-08-11T02:09:49.751Z,29.70
2022-08-11T02:12:00.036Z,29.80
2022-08-11T02:14:29.527Z,29.80
2022-08-11T02:17:00.506Z,29.80
2022-08-11T02:19:49.268Z,29.80
2022-08-11T02:22:16.666Z,29.80
2022-08-11T02:24:41.678Z,29.80
2022-08-11T02:26:56.118Z,29.90
2022-08-11T02:29:29.627Z,29.90
2022-08-11T02:32:24.052Z,30.00
2022-08-11T02:34:44.069Z,30.00
2022-08-11T02:37:26.559Z,30.10
2022-08-11T02:39:35.919Z,30.00
2022-08-11T02:42:33.397Z,30.00
2022-08-11T02:45:05.428Z,30.00
2022-08-11T02:47:34.657Z,30.10
2022-08-11T02:50:05.916Z,30.20
2022-08-11T02:52:54.847Z,30.20
2022-08-11T02:55:56.709Z,30.30
2022-08-11T02:58:30.158Z,30.30
2022-08-11T03:00:47.646Z,30.30
2022-08-11T03:03:09.488Z,30.40
2022-08-11T03:05:47.985Z,30.30
2022-08-11T03:08:26.832Z,30.40
2022-08-11T03:11:10.063Z,30.40
2022-08-11T03:13:45.437Z,30.30
2022-08-11T03:16:23.726Z,30.40
2022-08-11T03:18:50.750Z,30.50
2022-08-11T03:22:01.694Z,30.50
2022-08-11T03:24:09.159Z,30.60
2022-08-11T03:26:31.002Z,30.70
2022-08-11T03:28:45.152Z,30.70
2022-08-11T03:31:25.898Z,30.80
2022-08-11T03:33:53.940Z,30.80
2022-08-11T03:36:22.687Z,30.90
2022-08-11T03:38:30.539Z,30.90
2022-08-11T03:41:06.215Z,30.90
2022-08-11T03:43:58.809Z,31.00
2022-08-11T03:46:46.595Z,31.00
2022-08-11T03:49:19.429Z,31.10
2022-08-11T03:51:54.303Z,31.00
2022-08-11T03:54:30.781Z,31.00
2022-08-11T03:57:09.643Z,31.00
2022-08-11T03:59:46.326Z,31.10
2022-08-11T04:02:24.765Z,31.00
2022-08-11T04:05:01.349Z,31.10
2022-08-11T04:07:39.720Z,31.20
2022-08-11T04:10:08.525Z,31.20
2022-08-11T04:12:37.389Z,31.40
2022-08-11T04:15:16.863Z,31.50
2022-08-11T04:17:51.165Z,31.50
2022-08-11T04:20:33.148Z,31.60
2022-08-11T04:23:09.188Z,31.60
2022-08-11T04:25:58.160Z,31.80
2022-08-11T04:28:29.331Z,31.90
2022-08-11T04:31:10.077Z,31.80
2022-08-11T04:33:42.986Z,31.90
2022-08-11T04:36:20.885Z,31.90
2022-08-11T04:38:49.682Z,31.80
2022-08-11T04:41:17.811Z,31.70
2022-08-11T04:44:02.249Z,31.70
2022-08-11T04:46:43.194Z,31.70
2022-08-11T04:49:34.030Z,31.70
2022-08-11T04:52:10.373Z,31.70
2022-08-11T04:54:53.462Z,31.70
2022-08-11T04:57:16.141Z,31.70
2022-08-11T05:00:07.072Z,31.80
2022-08-11T05:02:43.383Z,31.80
2022-08-11T05:05:34.190Z,31.70
2022-08-11T05:08:10.346Z,31.60
2022-08-11T05:10:46.657Z,31.60
2022-08-11T05:12:57.252Z,31.60
2022-08-11T05:15:13.801Z,31.70
2022-08-11T05:17:50.886Z,31.70
2022-08-11T05:20:07.750Z,31.70
2022-08-11T05:22:25.582Z,31.70
2022-08-11T05:25:01.085Z,31.70
2022-08-11T05:27:19.328Z,31.70
2022-08-11T05:29:42.860Z,31.60
2022-08-11T05:32:14.597Z,31.60
2022-08-11T05:34:46.746Z,31.60
2022-08-11T05:36:56.409Z,31.60
2022-08-11T05:39:33.765Z,31.80
2022-08-11T05:41:53.535Z,31.90
2022-08-11T05:44:21.404Z,32.20
2022-08-11T05:46:41.266Z,32.30
2022-08-11T05:48:57.915Z,32.30
2022-08-11T05:51:16.454Z,32.20
2022-08-11T05:53:45.939Z,32.30
2022-08-11T05:56:05.093Z,32.40
2022-08-11T05:58:12.449Z,32.50
2022-08-11T06:00:19.050Z,32.50
2022-08-11T06:02:24.202Z,32.50
2022-08-11T06:04:31.135Z,32.50
2022-08-11T06:06:35.521Z,32.50
2022-08-11T06:08:41.151Z,32.60
2022-08-11T06:10:47.612Z,32.60
2022-08-11T06:12:56.951Z,32.70
2022-08-11T06:15:20.171Z,32.70
2022-08-11T06:17:38.957Z,32.70
2022-08-11T06:19:46.258Z,32.70
2022-08-11T06:21:50.895Z,32.80
2022-08-11T06:23:57.727Z,32.80
2022-08-11T06:26:05.801Z,32.70
2022-08-11T06:28:15.906Z,32.70
2022-08-11T06:30:40.841Z,32.60
2022-08-11T06:32:47.950Z,32.60
2022-08-11T06:35:33.848Z,32.60
2022-08-11T06:38:11.153Z,32.50
2022-08-11T06:40:42.663Z,32.50
2022-08-11T06:43:19.432Z,32.40
2022-08-11T06:45:49.874Z,32.30
2022-08-11T06:47:54.667Z,32.30
2022-08-11T06:50:12.980Z,32.30
2022-08-11T06:52:34.064Z,32.40
2022-08-11T06:54:42.803Z,32.50
2022-08-11T06:57:28.261Z,32.50
2022-08-11T06:59:38.858Z,32.30
2022-08-11T07:02:07.924Z,32.20
2022-08-11T07:04:13.491Z,32.10
2022-08-11T07:06:51.012Z,32.10
2022-08-11T07:09:36.945Z,32.10
2022-08-11T07:12:14.194Z,32.20
2022-08-11T07:14:39.015Z,32.30
2022-08-11T07:16:43.986Z,32.30
2022-08-11T07:19:00.817Z,32.40
2022-08-11T07:22:00.342Z,32.40
2022-08-11T07:24:02.338Z,32.40
2022-08-11T07:26:19.294Z,32.30
2022-08-11T07:28:41.970Z,32.40
2022-08-11T07:30:46.537Z,32.40
2022-08-11T07:33:01.218Z,32.30
2022-08-11T07:35:18.039Z,32.30
2022-08-11T07:37:23.156Z,32.30
2022-08-11T07:39:34.480Z,32.40
2022-08-11T07:41:40.235Z,32.50
2022-08-11T07:43:50.289Z,32.60
2022-08-11T07:46:09.380Z,32.70
2022-08-11T07:48:28.380Z,32.80
2022-08-11T07:50:44.984Z,32.70
2022-08-11T07:52:52.197Z,32.60
2022-08-11T07:55:13.327Z,32.60
2022-08-11T07:58:10.221Z,32.70
2022-08-11T08:00:11.047Z,32.80
2022-08-11T08:02:33.049Z,32.80
2022-08-11T08:04:49.874Z,32.80
2022-08-11T08:07:06.566Z,32.80
2022-08-11T08:09:25.179Z,32.90
2022-08-11T08:11:41.819Z,33.00
2022-08-11T08:13:58.830Z,33.00
2022-08-11T08:16:16.940Z,32.90
2022-08-11T08:18:26.675Z,32.80
2022-08-11T08:20:56.013Z,32.80
2022-08-11T08:23:04.124Z,32.80
2022-08-11T08:25:09.025Z,32.70
2022-08-11T08:27:15.613Z,32.60
2022-08-11T08:29:32.626Z,32.70
2022-08-11T08:31:37.215Z,32.80
2022-08-11T08:33:43.507Z,32.80
2022-08-11T08:35:55.682Z,32.80
2022-08-11T08:38:03.935Z,32.90
2022-08-11T08:40:10.472Z,32.80
2022-08-11T08:42:20.682Z,32.80
2022-08-11T08:44:41.154Z,32.90
2022-08-11T08:46:50.678Z,32.80
2022-08-11T08:48:56.133Z,32.70
2022-08-11T08:51:15.990Z,32.70
2022-08-11T08:53:23.501Z,32.70
2022-08-11T08:55:30.685Z,32.70
2022-08-11T08:57:39.875Z,32.70
2022-08-11T08:59:48.571Z,32.60
2022-08-11T09:02:08.855Z,32.60
2022-08-11T09:04:17.396Z,32.50
2022-08-11T09:06:26.975Z,32.60
2022-08-11T09:08:36.220Z,32.60
2022-08-11T09:10:40.650Z,32.60
2022-08-11T09:12:49.238Z,32.60
2022-08-11T09:15:08.090Z,32.60
2022-08-11T09:17:13.409Z,32.50
2022-08-11T09:19:20.120Z,32.50
2022-08-11T09:21:44.551Z,32.50
2022-08-11T09:24:21.968Z,32.40
2022-08-11T09:26:44.329Z,32.40
2022-08-11T09:28:50.751Z,32.50
2022-08-11T09:30:56.292Z,32.60
2022-08-11T09:33:04.974Z,32.60
2022-08-11T09:35:10.138Z,32.60
2022-08-11T09:37:28.653Z,32.60
2022-08-11T09:40:03.972Z,32.60
2022-08-11T09:42:11.220Z,32.60
2022-08-11T09:44:33.249Z,32.60
2022-08-11T09:46:41.934Z,32.50
2022-08-11T09:48:47.297Z,32.60
2022-08-11T09:50:53.706Z,32.60
2022-08-11T09:53:35.835Z,32.50
2022-08-11T09:55:26.835Z,32.50
2022-08-11T09:57:43.655Z,32.40
2022-08-11T10:00:09.357Z,32.40
2022-08-11T10:02:19.678Z,32.30
2022-08-11T10:04:35.884Z,32.40
2022-08-11T10:06:55.906Z,32.30
2022-08-11T10:09:00.308Z,32.30
2022-08-11T10:11:05.105Z,32.20
2022-08-11T10:14:31.122Z,32.20
2022-08-11T10:15:39.550Z,32.10
2022-08-11T10:18:21.651Z,32.00
2022-08-11T10:20:29.825Z,32.00
2022-08-11T10:22:47.741Z,32.00
2022-08-11T10:25:08.445Z,31.90
2022-08-11T10:27:14.480Z,31.90
2022-08-11T10:29:37.463Z,31.90
2022-08-11T10:31:57.579Z,31.80
2022-08-11T10:34:06.893Z,31.90
2022-08-11T10:36:16.423Z,31.80
2022-08-11T10:38:21.340Z,31.80
2022-08-11T10:40:25.746Z,31.70
2022-08-11T10:42:57.298Z,31.70
2022-08-11T10:45:03.259Z,31.70
2022-08-11T10:47:24.441Z,31.70
2022-08-11T10:49:29.241Z,31.60
2022-08-11T10:51:50.707Z,31.50
2022-08-11T10:54:12.382Z,31.50
2022-08-11T10:56:30.527Z,31.50
2022-08-11T10:58:53.432Z,31.50
2022-08-11T11:01:00.250Z,31.40
2022-08-11T11:03:22.976Z,31.40
2022-08-11T11:05:34.009Z,31.30
2022-08-11T11:08:23.458Z,31.30
2022-08-11T11:10:28.140Z,31.30
2022-08-11T11:13:00.827Z,31.30
2022-08-11T11:15:18.538Z,31.10
2022-08-11T11:17:58.016Z,31.10
2022-08-11T11:20:05.140Z,31.20
2022-08-11T11:22:25.077Z,31.10
2022-08-11T11:24:43.983Z,31.10
2022-08-11T11:27:20.252Z,31.20
2022-08-11T11:29:56.093Z,31.10
2022-08-11T11:32:26.445Z,31.10
2022-08-11T11:35:03.390Z,31.00
2022-08-11T11:37:08.809Z,31.00
2022-08-11T11:39:16.153Z,30.90
2022-08-11T11:41:27.588Z,30.90
2022-08-11T11:43:32.843Z,30.90
2022-08-11T11:45:38.589Z,30.90
2022-08-11T11:47:45.819Z,30.90
2022-08-11T11:49:51.683Z,30.90
2022-08-11T11:51:59.562Z,30.90
2022-08-11T11:54:07.479Z,31.00
2022-08-11T11:56:16.147Z,30.90
2022-08-11T11:58:34.097Z,30.70
2022-08-11T12:00:53.519Z,30.70
2022-08-11T12:03:01.427Z,30.80
2022-08-11T12:05:07.371Z,30.80
2022-08-11T12:07:26.803Z,30.80
2022-08-11T12:09:32.233Z,30.80
2022-08-11T12:11:51.172Z,30.70
2022-08-11T12:14:02.637Z,30.70
2022-08-11T12:16:34.148Z,30.70
2022-08-11T12:18:39.429Z,30.70
2022-08-11T12:20:46.555Z,30.70
2022-08-11T12:23:04.175Z,30.70
2022-08-11T12:25:25.374Z,30.60
2022-08-11T12:27:31.816Z,30.60
2022-08-11T12:29:41.297Z,30.50
2022-08-11T12:31:49.294Z,30.60
2022-08-11T12:34:01.905Z,30.60
2022-08-11T12:36:07.304Z,30.60
2022-08-11T12:38:12.906Z,30.50
2022-08-11T12:41:12.016Z,30.60
2022-08-11T12:43:21.047Z,30.50
2022-08-11T12:45:32.473Z,30.50
2022-08-11T12:48:38.173Z,30.50
2022-08-11T12:50:37.108Z,30.50
2022-08-11T12:52:50.881Z,30.40
2022-08-11T12:55:14.358Z,30.40
2022-08-11T12:57:51.971Z,30.50
2022-08-11T13:00:09.780Z,30.50
2022-08-11T13:02:35.618Z,30.50
2022-08-11T13:04:56.279Z,30.50
2022-08-11T13:07:04.671Z,30.50
2022-08-11T13:09:10.532Z,30.50
2022-08-11T13:11:56.428Z,30.50
2022-08-11T13:13:58.816Z,30.50
2022-08-11T13:16:04.210Z,30.50
2022-08-11T13:18:09.755Z,30.50
2022-08-11T13:20:18.904Z,30.40
2022-08-11T13:22:25.891Z,30.40
2022-08-11T13:24:31.535Z,30.40
2022-08-11T13:26:46.628Z,30.40
2022-08-11T13:28:56.674Z,30.40
2022-08-11T13:31:14.429Z,30.40
2022-08-11T13:33:21.900Z,30.40
2022-08-11T13:35:28.624Z,30.30
2022-08-11T13:38:18.712Z,30.20
2022-08-11T13:40:04.927Z,30.30
2022-08-11T13:42:10.200Z,30.20
2022-08-11T13:44:24.988Z,30.20
2022-08-11T13:46:32.485Z,30.30
2022-08-11T13:48:39.209Z,30.20
2022-08-11T13:50:58.197Z,30.20
2022-08-11T13:53:05.598Z,30.20
2022-08-11T13:55:33.424Z,30.20
2022-08-11T13:58:18.227Z,30.10
2022-08-11T14:00:25.071Z,30.10
2022-08-11T14:02:33.787Z,30.10
2022-08-11T14:04:47.544Z,30.10
2022-08-11T14:06:56.364Z,30.10
2022-08-11T14:09:01.725Z,30.10
2022-08-11T14:12:22.060Z,30.10
2022-08-11T14:13:48.648Z,30.10
2022-08-11T14:15:53.568Z,30.10
2022-08-11T14:18:08.892Z,30.10
2022-08-11T14:20:40.289Z,30.10
2022-08-11T14:22:39.751Z,30.10
2022-08-11T14:24:50.810Z,30.00
2022-08-11T14:27:01.372Z,30.00
2022-08-11T14:31:29.319Z,29.90
2022-08-11T14:33:58.937Z,29.90
2022-08-11T14:36:11.201Z,30.00
2022-08-11T14:38:16.943Z,29.90
2022-08-11T14:40:35.371Z,29.90
2022-08-11T14:42:52.217Z,29.90
2022-08-11T14:45:14.814Z,29.80
2022-08-11T14:47:23.901Z,29.90
2022-08-11T14:49:30.589Z,29.90
2022-08-11T14:51:35.134Z,29.90
2022-08-11T14:53:39.595Z,29.90
2022-08-11T14:56:08.411Z,29.90
2022-08-11T14:58:21.434Z,29.90
2022-08-11T15:00:28.075Z,29.90
2022-08-11T15:02:47.090Z,29.80
2022-08-11T15:04:53.941Z,29.80
2022-08-11T15:07:00.328Z,29.80
2022-08-11T15:09:08.890Z,29.80
2022-08-11T15:11:27.950Z,29.80
2022-08-11T15:13:37.264Z,29.80
2022-08-11T15:15:54.042Z,29.70
2022-08-11T15:18:02.004Z,29.70
2022-08-11T15:20:24.198Z,29.80
2022-08-11T15:22:41.058Z,29.80
2022-08-11T15:24:47.305Z,29.60
2022-08-11T15:27:05.908Z,29.70
2022-08-11T15:29:23.629Z,29.70
2022-08-11T15:31:31.206Z,29.70
2022-08-11T15:33:49.834Z,29.60
2022-08-11T15:36:07.444Z,29.60
2022-08-11T15:38:12.779Z,29.60
2022-08-11T15:40:39.151Z,29.70
2022-08-11T15:43:25.834Z,29.60
2022-08-11T15:45:45.538Z,29.60
2022-08-11T15:48:05.562Z,29.60
2022-08-11T15:50:16.912Z,29.60
2022-08-11T15:52:24.161Z,29.50
2022-08-11T15:54:32.187Z,29.60
2022-08-11T15:56:39.647Z,29.60
2022-08-11T15:59:40.821Z,29.50
2022-08-11T16:01:42.219Z,29.50
2022-08-11T16:04:09.040Z,29.50
2022-08-11T16:06:14.744Z,29.50
2022-08-11T16:08:32.887Z,29.50
2022-08-11T16:13:06.346Z,29.40
2022-08-11T16:15:26.129Z,29.40
2022-08-11T16:17:33.942Z,29.30
2022-08-11T16:19:38.737Z,29.30
2022-08-11T16:21:44.659Z,29.30
2022-08-11T16:23:51.588Z,29.30
2022-08-11T16:25:58.259Z,29.40
2022-08-11T16:28:23.719Z,29.40
2022-08-11T16:30:28.685Z,29.30
2022-08-11T16:32:33.157Z,29.30
2022-08-11T16:34:52.385Z,29.30
2022-08-11T16:37:11.276Z,29.30
2022-08-11T16:39:19.641Z,29.20
2022-08-11T16:41:38.946Z,29.20
2022-08-11T16:43:58.432Z,29.20
2022-08-11T16:46:15.749Z,29.30
2022-08-11T16:48:36.244Z,29.30
2022-08-11T16:50:43.808Z,29.40
2022-08-11T16:52:48.568Z,29.30
2022-08-11T16:54:54.838Z,29.30
2022-08-11T16:57:21.077Z,29.30
2022-08-11T16:59:37.773Z,29.30
2022-08-11T17:01:56.964Z,29.30
2022-08-11T17:04:45.715Z,29.20
2022-08-11T17:07:03.865Z,29.20
2022-08-11T17:09:42.540Z,29.20
2022-08-11T17:12:03.941Z,29.20
2022-08-11T17:14:15.927Z,29.20
2022-08-11T17:16:24.769Z,29.20
2022-08-11T17:18:41.482Z,29.20
2022-08-11T17:20:47.721Z,29.20
2022-08-11T17:23:06.672Z,29.20
2022-08-11T17:25:18.031Z,29.10
2022-08-11T17:27:23.823Z,29.10
2022-08-11T17:29:53.651Z,29.10
2022-08-11T17:32:12.977Z,29.10
2022-08-11T17:34:31.752Z,29.10
2022-08-11T17:36:41.548Z,29.10
2022-08-11T17:38:48.984Z,29.10
2022-08-11T17:41:23.269Z,29.00
2022-08-11T17:43:42.793Z,29.10
2022-08-11T17:45:59.738Z,29.20
2022-08-11T17:48:18.707Z,29.10
2022-08-11T17:50:25.056Z,29.10
2022-08-11T17:52:42.269Z,29.10
2022-08-11T17:54:59.937Z,28.90
2022-08-11T17:57:20.467Z,28.90
2022-08-11T17:59:38.103Z,28.90
2022-08-11T18:01:44.447Z,29.00
2022-08-11T18:03:53.263Z,28.90
2022-08-11T18:06:03.919Z,29.00
2022-08-11T18:08:24.045Z,29.00
2022-08-11T18:10:46.684Z,29.00
2022-08-11T18:13:06.832Z,28.90
2022-08-11T18:15:27.170Z,29.00
2022-08-11T18:17:51.326Z,29.00
2022-08-11T18:20:09.658Z,29.00
2022-08-11T18:22:33.499Z,28.80
2022-08-11T18:24:53.572Z,28.80
2022-08-11T18:27:14.021Z,28.80
2022-08-11T18:29:31.752Z,28.90
2022-08-11T18:32:03.344Z,28.80
2022-08-11T18:34:23.041Z,28.80
2022-08-11T18:36:45.380Z,28.80
2022-08-11T18:39:04.334Z,28.70
2022-08-11T18:41:22.097Z,28.80
2022-08-11T18:43:41.522Z,28.80
2022-08-11T18:46:06.503Z,28.80
2022-08-11T18:48:26.386Z,28.80
2022-08-11T18:51:00.663Z,28.80
2022-08-11T18:53:29.811Z,28.80
2022-08-11T18:55:46.559Z,28.70
2022-08-11T18:58:05.250Z,28.70
2022-08-11T19:00:24.140Z,28.80
2022-08-11T19:02:48.641Z,28.80
2022-08-11T19:05:06.288Z,28.70
2022-08-11T19:07:25.676Z,28.70
2022-08-11T19:09:42.425Z,28.60
2022-08-11T19:12:02.949Z,28.70
2022-08-11T19:14:21.824Z,28.70
2022-08-11T19:16:38.860Z,28.70
2022-08-11T19:18:57.445Z,28.70
2022-08-11T19:21:16.444Z,28.60
2022-08-11T19:23:34.587Z,28.60
2022-08-11T19:25:53.487Z,28.70
2022-08-11T19:28:12.130Z,28.60
2022-08-11T19:30:29.006Z,28.70
2022-08-11T19:32:45.737Z,28.70
2022-08-11T19:35:05.489Z,28.60
2022-08-11T19:37:24.677Z,28.60
2022-08-11T19:39:44.480Z,28.60
2022-08-11T19:42:03.279Z,28.70
2022-08-11T19:44:19.833Z,28.60
2022-08-11T19:46:39.104Z,28.50
2022-08-11T19:48:58.266Z,28.60
2022-08-11T19:51:14.961Z,28.60
2022-08-11T19:53:34.394Z,28.60
2022-08-11T19:55:53.238Z,28.50
2022-08-11T19:58:10.269Z,28.50
2022-08-11T20:00:31.717Z,28.50
2022-08-11T20:02:48.593Z,28.50
2022-08-11T20:05:05.573Z,28.50
2022-08-11T20:07:23.977Z,28.40
2022-08-11T20:10:06.208Z,28.40
2022-08-11T20:12:24.210Z,28.40
2022-08-11T20:14:45.723Z,28.40
2022-08-11T20:17:05.212Z,28.40
2022-08-11T20:19:25.984Z,28.40
2022-08-11T20:22:01.796Z,28.40
2022-08-11T20:24:23.282Z,28.40
2022-08-11T20:26:46.187Z,28.50
2022-08-11T20:29:10.829Z,28.50
2022-08-11T20:31:29.559Z,28.40
2022-08-11T20:33:46.501Z,28.40
2022-08-11T20:36:08.778Z,28.40
2022-08-11T20:38:28.792Z,28.30
2022-08-11T20:40:47.959Z,28.40
2022-08-11T20:43:05.980Z,28.40
2022-08-11T20:45:56.753Z,28.30
2022-08-11T20:48:18.507Z,28.30
2022-08-11T20:50:45.755Z,28.40
2022-08-11T20:53:04.685Z,28.30
2022-08-11T20:55:45.591Z,28.20
2022-08-11T20:58:05.217Z,28.20
2022-08-11T21:00:38.890Z,28.30
2022-08-11T21:02:56.374Z,28.30
2022-08-11T21:05:21.678Z,28.20
2022-08-11T21:08:00.641Z,28.20
2022-08-11T21:10:23.367Z,28.20
2022-08-11T21:12:41.654Z,28.10
2022-08-11T21:15:04.824Z,28.00
2022-08-11T21:17:27.005Z,27.90
2022-08-11T21:20:00.010Z,27.90
2022-08-11T21:22:28.107Z,28.00
2022-08-11T21:24:48.059Z,28.10
2022-08-11T21:27:06.152Z,28.10
2022-08-11T21:29:23.260Z,28.10
2022-08-11T21:31:40.297Z,28.10
2022-08-11T21:33:57.931Z,28.10
2022-08-11T21:36:18.703Z,28.00
2022-08-11T21:38:36.165Z,28.00
2022-08-11T21:40:56.470Z,28.00
2022-08-11T21:43:16.869Z,28.10
2022-08-11T21:45:34.291Z,28.10
2022-08-11T21:48:01.182Z,28.10
2022-08-11T21:50:22.956Z,28.00
2022-08-11T21:52:40.059Z,27.90
2022-08-11T21:54:56.783Z,28.00
2022-08-11T21:57:16.849Z,28.00
2022-08-11T21:59:37.162Z,28.00
2022-08-11T22:01:53.930Z,28.00
2022-08-11T22:04:14.460Z,28.00
2022-08-11T22:06:31.304Z,28.00
2022-08-11T22:08:47.906Z,27.90
2022-08-11T22:11:08.546Z,27.90
2022-08-11T22:13:27.525Z,27.90
2022-08-11T22:15:44.139Z,27.90
2022-08-11T22:18:04.860Z,27.90
2022-08-11T22:20:21.937Z,27.90
2022-08-11T22:22:52.465Z,27.90
2022-08-11T22:25:16.609Z,27.90
2022-08-11T22:27:35.452Z,27.90
2022-08-11T22:29:52.084Z,27.90
2022-08-11T22:32:10.581Z,27.90
2022-08-11T22:34:27.367Z,27.80
2022-08-11T22:36:44.022Z,27.80
2022-08-11T22:39:05.491Z,27.90
2022-08-11T22:41:21.993Z,27.90
2022-08-11T22:43:39.051Z,27.90
2022-08-11T22:45:57.719Z,27.90
2022-08-11T22:48:15.286Z,27.80
2022-08-11T22:50:31.999Z,27.80
2022-08-11T22:52:52.380Z,27.80
2022-08-11T22:57:39.801Z,27.80
2022-08-11T22:59:59.945Z,27.80
2022-08-11T23:02:17.477Z,27.80
2022-08-11T23:04:34.369Z,27.80
2022-08-11T23:06:50.940Z,27.80
2022-08-11T23:09:07.882Z,27.80
2022-08-11T23:11:24.733Z,27.80
2022-08-11T23:13:45.940Z,27.80
2022-08-11T23:16:02.541Z,27.80
2022-08-11T23:18:19.180Z,27.80
2022-08-11T23:20:52.909Z,27.80
2022-08-11T23:23:11.350Z,27.80
2022-08-11T23:25:28.054Z,27.90
2022-08-11T23:27:47.894Z,27.90
2022-08-11T23:30:05.154Z,27.90
2022-08-11T23:32:21.721Z,27.90
2022-08-11T23:35:04.223Z,27.90
2022-08-11T23:37:26.798Z,27.90
2022-08-11T23:39:46.190Z,28.00
2022-08-11T23:42:05.101Z,28.00
2022-08-11T23:44:22.358Z,28.00
2022-08-11T23:46:41.086Z,28.00
2022-08-11T23:49:00.374Z,28.10
2022-08-11T23:51:18.634Z,28.20
2022-08-11T23:53:37.291Z,28.20
2022-08-11T23:55:55.831Z,28.20
2022-08-11T23:58:12.537Z,28.20
